Time,TemperatureF,DewpointF,PressureIn,WindDirection,WindDirectionDegrees,WindSpeedMPH,WindSpeedGustMPH,Humidity,HourlyPrecipIn,Conditions,Clouds,dailyrainin,SoftwareType,DateUTC
2013-09-01 00:05:00,57.2,56.6,29.87,West,270,0.0,-999.0,98,-99.99,,,0.00,Acu-Link.com,2013-09-01 07:05:00,
2013-09-01 00:20:00,57.0,56.4,29.86,NE,45,0.0,-999.0,98,-99.99,,,0.00,Acu-Link.com,2013-09-01 07:20:00,
2013-09-01 00:36:00,57.0,56.4,29.85,ESE,112,0.0,-999.0,98,-99.99,,,0.00,Acu-Link.com,2013-09-01 07:36:00,
2013-09-01 00:51:00,56.8,56.2,29.85,ENE,67,0.0,-999.0,98,-99.99,,,0.00,Acu-Link.com,2013-09-01 07:51:00,
2013-09-01 01:07:00,56.8,56.2,29.87,NE,45,1.7,-999.0,98,-99.99,,,0.00,Acu-Link.com,2013-09-01 08:07:00,
2013-09-01 01:22:00,56.7,56.1,29.86,ENE,67,0.0,-999.0,98,-99.99,,,0.00,Acu-Link.com,2013-09-01 08:22:00,
2013-09-01 01:37:00,56.5,55.9,29.86,East,90,0.0,-999.0,98,-99.99,,,0.00,Acu-Link.com,2013-09-01 08:37:00,
2013-09-01 01:52:00,56.7,56.1,29.86,WSW,247,0.0,-999.0,98,-99.99,,,0.00,Acu-Link.com,2013-09-01 08:52:00,
2013-09-01 02:08:00,56.5,55.9,29.86,South,180,0.0,-999.0,98,-99.99,,,0.00,Acu-Link.com,2013-09-01 09:08:00,
2013-09-01 02:23:00,56.5,55.9,29.86,ESE,112,0.0,-999.0,98,-99.99,,,0.00,Acu-Link.com,2013-09-01 09:23:00,
2013-09-01 02:38:00,56.1,55.5,29.85,North,0,0.0,-999.0,98,-99.99,,,0.00,Acu-Link.com,2013-09-01 09:38:00,
2013-09-01 02:53:00,55.8,55.2,29.85,South,180,0.0,-999.0,98,-99.99,,,0.00,Acu-Link.com,2013-09-01 09:53:00,
2013-09-01 03:08:00,55.8,55.2,29.84,NNW,337,0.0,-999.0,98,-99.99,,,0.00,Acu-Link.com,2013-09-01 10:08:00,
2013-09-01 03:24:00,55.8,55.2,29.84,ESE,112,0.0,-999.0,98,-99.99,,,0.00,Acu-Link.com,2013-09-01 10:24:00,
2013-09-01 03:39:00,55.6,55.0,29.84,SW,225,0.0,-999.0,98,-99.99,,,0.00,Acu-Link.com,2013-09-01 10:39:00,
2013-09-01 03:54:00,55.6,55.0,29.84,East,90,0.0,-999.0,98,-99.99,,,0.00,Acu-Link.com,2013-09-01 10:54:00,
2013-09-01 04:09:00,55.6,55.0,29.83,West,270,1.7,-999.0,98,-99.99,,,0.00,Acu-Link.com,2013-09-01 11:09:00,
2013-09-01 04:25:00,55.6,55.0,29.83,SW,225,0.0,-999.0,98,-99.99,,,0.00,Acu-Link.com,2013-09-01 11:25:00,
2013-09-01 04:40:00,55.6,55.0,29.83,ESE,112,0.0,-999.0,98,-99.99,,,0.00,Acu-Link.com,2013-09-01 11:40:00,
2013-09-01 04:55:00,55.6,55.0,29.83,NW,315,0.0,-999.0,98,-99.99,,,0.00,Acu-Link.com,2013-09-01 11:55:00,
2013-09-01 05:11:00,55.6,55.0,29.83,ESE,112,0.0,-999.0,98,-99.99,,,0.00,Acu-Link.com,2013-09-01 12:11:00,
2013-09-01 05:26:00,55.6,55.0,29.83,NW,315,0.0,-999.0,98,-99.99,,,0.00,Acu-Link.com,2013-09-01 12:26:00,
2013-09-01 05:41:00,55.4,54.8,29.83,WSW,247,0.0,-999.0,98,-99.99,,,0.00,Acu-Link.com,2013-09-01 12:41:00,
2013-09-01 05:56:00,55.4,54.8,29.83,SE,135,0.0,-999.0,98,-99.99,,,0.00,Acu-Link.com,2013-09-01 12:56:00,
2013-09-01 06:12:00,55.4,54.8,29.83,ENE,67,0.0,-999.0,98,-99.99,,,0.00,Acu-Link.com,2013-09-01 13:12:00,
2013-09-01 06:27:00,55.6,55.0,29.83,ENE,67,0.0,-999.0,98,-99.99,,,0.00,Acu-Link.com,2013-09-01 13:27:00,
2013-09-01 06:42:00,55.6,55.0,29.83,West,270,0.0,-999.0,98,-99.99,,,0.00,Acu-Link.com,2013-09-01 13:42:00,
2013-09-01 06:58:00,55.4,54.8,29.84,ENE,67,0.0,-999.0,98,-99.99,,,0.00,Acu-Link.com,2013-09-01 13:58:00,
2013-09-01 07:13:00,55.6,55.0,29.85,WSW,247,0.0,-999.0,98,-99.99,,,0.00,Acu-Link.com,2013-09-01 14:13:00,
2013-09-01 07:28:00,55.8,55.2,29.84,SSW,202,0.0,-999.0,98,-99.99,,,0.00,Acu-Link.com,2013-09-01 14:28:00,
2013-09-01 07:44:00,56.5,55.9,29.83,North,0,0.0,-999.0,98,-99.99,,,0.00,Acu-Link.com,2013-09-01 14:44:00,
2013-09-01 07:59:00,57.2,56.1,29.82,SE,135,0.0,-999.0,96,-99.99,,,0.00,Acu-Link.com,2013-09-01 14:59:00,
2013-09-01 08:14:00,58.1,56.4,29.81,SSW,202,0.0,-999.0,94,-99.99,,,0.00,Acu-Link.com,2013-09-01 15:14:00,
2013-09-01 08:29:00,58.6,56.6,29.82,SW,225,2.2,-999.0,93,-99.99,,,0.00,Acu-Link.com,2013-09-01 15:29:00,
2013-09-01 08:45:00,60.3,57.7,29.81,SSW,202,1.7,-999.0,91,-99.99,,,0.00,Acu-Link.com,2013-09-01 15:45:00,
2013-09-01 09:00:00,59.9,57.3,29.81,WSW,247,2.7,-999.0,91,-99.99,,,0.00,Acu-Link.com,2013-09-01 16:00:00,
2013-09-01 09:15:00,59.9,57.3,29.80,West,270,3.7,-999.0,91,-99.99,,,0.00,Acu-Link.com,2013-09-01 16:15:00,
2013-09-01 09:31:00,61.0,57.7,29.81,NNW,337,2.2,-999.0,89,-99.99,,,0.00,Acu-Link.com,2013-09-01 16:31:00,
2013-09-01 09:46:00,63.1,58.8,29.81,WNW,292,1.1,-999.0,86,-99.99,,,0.00,Acu-Link.com,2013-09-01 16:46:00,
2013-09-01 10:01:00,65.7,60.0,29.82,SSE,157,1.7,-999.0,82,-99.99,,,0.00,Acu-Link.com,2013-09-01 17:01:00,
2013-09-01 10:16:00,67.8,61.4,29.80,ESE,112,0.0,-999.0,80,-99.99,,,0.00,Acu-Link.com,2013-09-01 17:16:00,
2013-09-01 10:31:00,68.5,60.6,29.80,West,270,1.7,-999.0,76,-99.99,,,0.00,Acu-Link.com,2013-09-01 17:31:00,
2013-09-01 10:47:00,71.6,62.5,29.80,WNW,292,0.0,-999.0,73,-99.99,,,0.00,Acu-Link.com,2013-09-01 17:47:00,
2013-09-01 11:02:00,73.9,63.1,29.80,SSW,202,0.0,-999.0,69,-99.99,,,0.00,Acu-Link.com,2013-09-01 18:02:00,
2013-09-01 11:17:00,73.6,62.0,29.80,WSW,247,2.7,-999.0,67,-99.99,,,0.00,Acu-Link.com,2013-09-01 18:17:00,
2013-09-01 11:32:00,76.1,61.7,29.78,WNW,292,3.7,-999.0,61,-99.99,,,0.00,Acu-Link.com,2013-09-01 18:32:00,
2013-09-01 11:47:00,78.6,61.6,29.78,SSE,157,1.7,-999.0,56,-99.99,,,0.00,Acu-Link.com,2013-09-01 18:47:00,
2013-09-01 12:03:00,79.2,60.6,29.77,SW,225,6.3,-999.0,53,-99.99,,,0.00,Acu-Link.com,2013-09-01 19:03:00,
2013-09-01 12:18:00,80.1,59.2,29.77,SSW,202,4.7,-999.0,49,-99.99,,,0.00,Acu-Link.com,2013-09-01 19:18:00,
2013-09-01 12:34:00,80.6,59.6,29.76,WSW,247,3.2,-999.0,49,-99.99,,,0.00,Acu-Link.com,2013-09-01 19:34:00,
2013-09-01 12:49:00,81.0,61.1,29.78,West,270,4.2,-999.0,51,-99.99,,,0.00,Acu-Link.com,2013-09-01 19:49:00,
2013-09-01 13:04:00,81.7,60.7,29.76,SW,225,4.7,-999.0,49,-99.99,,,0.00,Acu-Link.com,2013-09-01 20:04:00,
2013-09-01 13:19:00,79.2,61.1,29.76,WNW,292,4.2,-999.0,54,-99.99,,,0.00,Acu-Link.com,2013-09-01 20:19:00,
2013-09-01 13:35:00,80.1,61.4,29.76,WNW,292,2.2,-999.0,53,-99.99,,,0.00,Acu-Link.com,2013-09-01 20:35:00,
2013-09-01 13:50:00,80.8,60.4,29.76,WSW,247,4.2,-999.0,50,-99.99,,,0.00,Acu-Link.com,2013-09-01 20:50:00,
2013-09-01 14:05:00,81.0,60.6,29.75,West,270,7.8,-999.0,50,-99.99,,,0.00,Acu-Link.com,2013-09-01 21:05:00,
2013-09-01 14:20:00,81.5,60.5,29.75,West,270,4.2,-999.0,49,-99.99,,,0.00,Acu-Link.com,2013-09-01 21:20:00,
2013-09-01 14:35:00,81.7,59.5,29.75,SW,225,7.8,-999.0,47,-99.99,,,0.00,Acu-Link.com,2013-09-01 21:35:00,
2013-09-01 14:51:00,81.1,58.9,29.73,NW,315,6.3,-999.0,47,-99.99,,,0.00,Acu-Link.com,2013-09-01 21:51:00,
2013-09-01 15:06:00,81.5,58.7,29.72,WSW,247,6.3,-999.0,46,-99.99,,,0.00,Acu-Link.com,2013-09-01 22:06:00,
2013-09-01 15:21:00,81.7,59.5,29.72,SW,225,4.2,-999.0,47,-99.99,,,0.00,Acu-Link.com,2013-09-01 22:21:00,
2013-09-01 15:37:00,83.3,59.1,29.72,SW,225,6.3,-999.0,44,-99.99,,,0.00,Acu-Link.com,2013-09-01 22:37:00,
2013-09-01 15:52:00,82.8,58.6,29.71,SW,225,6.3,-999.0,44,-99.99,,,0.00,Acu-Link.com,2013-09-01 22:52:00,
2013-09-01 16:07:00,82.4,59.5,29.72,SW,225,3.7,-999.0,46,-99.99,,,0.00,Acu-Link.com,2013-09-01 23:07:00,
2013-09-01 16:22:00,80.2,58.1,29.71,West,270,5.8,-999.0,47,-99.99,,,0.00,Acu-Link.com,2013-09-01 23:22:00,
2013-09-01 16:38:00,80.2,58.1,29.71,WNW,292,8.9,-999.0,47,-99.99,,,0.00,Acu-Link.com,2013-09-01 23:38:00,
2013-09-01 16:53:00,80.8,58.7,29.71,SW,225,6.3,-999.0,47,-99.99,,,0.00,Acu-Link.com,2013-09-01 23:53:00,
2013-09-01 17:08:00,79.5,58.6,29.70,SE,135,6.3,-999.0,49,-99.99,,,0.00,Acu-Link.com,2013-09-02 00:08:00,
2013-09-01 17:24:00,79.0,58.8,29.71,SW,225,9.4,-999.0,50,-99.99,,,0.00,Acu-Link.com,2013-09-02 00:24:00,
2013-09-01 17:39:00,78.8,59.7,29.71,SSW,202,4.2,-999.0,52,-99.99,,,0.00,Acu-Link.com,2013-09-02 00:39:00,
2013-09-01 17:54:00,77.2,60.3,29.71,West,270,9.4,-999.0,56,-99.99,,,0.00,Acu-Link.com,2013-09-02 00:54:00,
2013-09-01 18:09:00,77.0,62.0,29.72,South,180,5.3,-999.0,60,-99.99,,,0.00,Acu-Link.com,2013-09-02 01:09:00,
2013-09-01 18:24:00,76.1,61.2,29.72,SW,225,10.4,-999.0,60,-99.99,,,0.00,Acu-Link.com,2013-09-02 01:24:00,
2013-09-01 18:39:00,74.7,62.1,29.72,WSW,247,5.3,-999.0,65,-99.99,,,0.00,Acu-Link.com,2013-09-02 01:39:00,
2013-09-01 18:55:00,73.0,62.2,29.74,SE,135,1.7,-999.0,69,-99.99,,,0.00,Acu-Link.com,2013-09-02 01:55:00,
2013-09-01 19:10:00,73.9,62.7,29.72,ESE,112,1.1,-999.0,68,-99.99,,,0.00,Acu-Link.com,2013-09-02 02:10:00,
2013-09-01 19:25:00,72.5,62.1,29.73,SSW,202,1.1,-999.0,70,-99.99,,,0.00,Acu-Link.com,2013-09-02 02:25:00,
2013-09-01 19:40:00,71.1,62.4,29.74,ENE,67,0.0,-999.0,74,-99.99,,,0.00,Acu-Link.com,2013-09-02 02:40:00,
2013-09-01 19:55:00,69.8,62.3,29.74,West,270,1.7,-999.0,77,-99.99,,,0.00,Acu-Link.com,2013-09-02 02:55:00,
2013-09-01 20:10:00,69.6,62.8,29.74,West,270,4.2,-999.0,79,-99.99,,,0.00,Acu-Link.com,2013-09-02 03:10:00,
2013-09-01 20:26:00,69.6,62.8,29.74,West,270,4.7,-999.0,79,-99.99,,,0.00,Acu-Link.com,2013-09-02 03:26:00,
2013-09-01 20:41:00,69.6,63.1,29.75,WSW,247,2.7,-999.0,80,-99.99,,,0.00,Acu-Link.com,2013-09-02 03:41:00,
2013-09-01 20:57:00,69.3,63.6,29.74,SW,225,1.1,-999.0,82,-99.99,,,0.00,Acu-Link.com,2013-09-02 03:57:00,
2013-09-01 21:12:00,68.7,63.7,29.75,SSW,202,5.3,-999.0,84,-99.99,,,0.00,Acu-Link.com,2013-09-02 04:12:00,
2013-09-01 21:27:00,67.8,64.1,29.76,NE,45,3.7,-999.0,88,-99.99,,,0.00,Acu-Link.com,2013-09-02 04:27:00,
2013-09-01 21:42:00,67.3,63.6,29.76,East,90,1.1,-999.0,88,-99.99,,,0.00,Acu-Link.com,2013-09-02 04:42:00,
2013-09-01 21:58:00,66.7,63.7,29.77,NE,45,0.0,-999.0,90,-99.99,,,0.00,Acu-Link.com,2013-09-02 04:58:00,
2013-09-01 22:13:00,66.0,63.6,29.76,NNE,22,1.7,-999.0,92,-99.99,,,0.00,Acu-Link.com,2013-09-02 05:13:00,
2013-09-01 22:28:00,66.0,63.6,29.76,ENE,67,0.0,-999.0,92,-99.99,,,0.00,Acu-Link.com,2013-09-02 05:28:00,
2013-09-01 22:43:00,66.0,63.6,29.76,East,90,0.0,-999.0,92,-99.99,,,0.00,Acu-Link.com,2013-09-02 05:43:00,
2013-09-01 22:59:00,66.0,63.6,29.77,ESE,112,0.0,-999.0,92,-99.99,,,0.00,Acu-Link.com,2013-09-02 05:59:00,
2013-09-01 23:14:00,65.7,63.0,29.77,ESE,112,0.0,-999.0,91,-99.99,,,0.00,Acu-Link.com,2013-09-02 06:14:00,
2013-09-01 23:29:00,65.3,62.9,29.77,SE,135,0.0,-999.0,92,-99.99,,,0.00,Acu-Link.com,2013-09-02 06:29:00,
2013-09-01 23:45:00,64.8,62.4,29.77,SE,135,0.0,-999.0,92,-99.99,,,0.00,Acu-Link.com,2013-09-02 06:45:00,